createdAt,value
2022-11-16T00:05:34.933Z,100
2022-11-16T00:15:35.195Z,100
2022-11-16T00:25:36.044Z,100
2022-11-16T00:35:36.438Z,100
2022-11-16T00:45:37.379Z,100
2022-11-16T00:55:37.640Z,100
2022-11-16T01:05:38.371Z,100
2022-11-16T01:15:38.786Z,100
2022-11-16T01:25:38.947Z,100
2022-11-16T01:35:39.760Z,100
2022-11-16T01:45:40.621Z,100
2022-11-16T01:55:41.077Z,100
2022-11-16T02:55:43.649Z,100
2022-11-16T03:05:43.782Z,100
2022-11-16T03:15:44.144Z,100
2022-11-16T03:25:44.708Z,100
2022-11-16T03:35:45.516Z,100
2022-11-16T03:45:45.816Z,100
2022-11-16T03:55:49.727Z,100
2022-11-16T04:15:47.344Z,100
2022-11-16T04:25:48.282Z,100
2022-11-16T04:35:48.669Z,100
2022-11-16T04:55:49.735Z,100
2022-11-16T05:15:50.776Z,100
2022-11-16T05:25:51.624Z,100
2022-11-16T05:35:52.575Z,100
2022-11-16T05:55:53.233Z,100
2022-11-16T06:05:53.548Z,100
2022-11-16T06:15:54.456Z,100
2022-11-16T06:25:55.479Z,100
2022-11-16T06:35:56.039Z,100
2022-11-16T06:55:57.334Z,100
2022-11-16T07:15:57.808Z,100
2022-11-16T07:35:58.882Z,100
2022-11-16T07:55:59.355Z,100
2022-11-16T08:05:59.685Z,100
2022-11-16T08:16:00.148Z,100
2022-11-16T08:26:01.230Z,100
2022-11-16T08:46:02.827Z,100
2022-11-16T08:56:03.264Z,100
2022-11-16T09:06:03.703Z,100
2022-11-16T09:16:04.735Z,100
2022-11-16T09:26:05.004Z,98
2022-11-16T09:36:05.902Z,96
2022-11-16T09:46:06.533Z,94
2022-11-16T09:56:06.776Z,92
2022-11-16T10:06:07.525Z,89
2022-11-16T10:16:08.445Z,86
2022-11-16T10:36:10.257Z,82
2022-11-16T10:46:10.447Z,78
2022-11-16T10:56:11.360Z,80
2022-11-16T11:06:12.300Z,78
2022-11-16T11:16:12.478Z,78
2022-11-16T11:26:13.101Z,79
2022-11-16T11:36:13.868Z,78
2022-11-16T11:46:14.316Z,79
2022-11-16T11:56:15.060Z,79
2022-11-16T12:36:18.305Z,76
2022-11-16T12:56:19.376Z,72
2022-11-16T13:06:19.750Z,71
2022-11-16T13:16:20.174Z,73
2022-11-16T13:26:20.741Z,72
2022-11-16T13:36:21.074Z,70
2022-11-16T13:46:48.557Z,71
2022-11-16T13:56:25.716Z,73
2022-11-16T14:06:22.760Z,74
2022-11-16T14:16:23.652Z,75
2022-11-16T14:36:24.141Z,75
2022-11-16T14:56:25.487Z,77
2022-11-16T15:06:25.661Z,78
2022-11-16T15:26:27.162Z,79
2022-11-16T15:36:27.648Z,80
2022-11-16T16:06:28.440Z,83
2022-11-16T16:16:29.346Z,84
2022-11-16T16:26:30.222Z,84
2022-11-16T16:36:31.264Z,86
2022-11-16T16:46:32.153Z,87
2022-11-16T16:56:32.450Z,87
2022-11-16T17:16:34.467Z,88
2022-11-16T17:26:35.383Z,88
2022-11-16T17:36:36.010Z,88
2022-11-16T17:46:36.559Z,89
2022-11-16T17:56:36.790Z,90
2022-11-16T18:06:37.478Z,89
2022-11-16T18:46:39.314Z,90
2022-11-16T19:56:44.945Z,93
2022-11-16T20:06:45.902Z,94
2022-11-16T20:16:46.504Z,93
2022-11-16T20:26:47.108Z,93
2022-11-16T20:36:47.227Z,94
2022-11-16T20:46:48.162Z,94
2022-11-16T20:56:49.133Z,94
2022-11-16T21:16:50.949Z,94
2022-11-16T21:36:52.140Z,94
2022-11-16T21:56:53.289Z,94
2022-11-16T22:06:53.802Z,95
2022-11-16T22:16:53.882Z,95
2022-11-16T22:26:54.658Z,95
2022-11-16T22:36:55.689Z,95
2022-11-16T22:46:55.899Z,95
2022-11-16T22:56:56.564Z,95
2022-11-16T23:06:56.890Z,95
2022-11-16T23:16:57.068Z,95
2022-11-16T23:26:57.547Z,94
2022-11-16T23:36:58.034Z,94
2022-11-16T23:47:03.862Z,94
2022-11-16T23:57:04.737Z,94
